Latest Weather Observations for Butlers Gorge

IDT60801

Issued at 11:21 pm EST Tuesday 23 July 2019 (issued every 10 minutes, with the page automatically refreshed every 10 minutes)

About weather observations | Map of weather stations | Latest weather observations for TAS | Other Formats
Station Details ID: 096003 Name: BUTLERS GORGE Lat: -42.28 Lon: 146.28 Height: 667.0 m
Data from the previous 72 hours. | See also: Recent months at Butlers Gorge
Date/Time
EST
Temp
°C
App
Temp
°C
Dew
Point
°C
Rel
Hum
%
Delta-T
°C
Wind Press
QNH
hPa
Press
MSL
hPa
Rain since
9am
mm
Dir  Spd
km/h
Gust
km/h
Spd
kts
Gust
kts
23/11:00pm 0.7 -3.0 -0.3 93 0.4 WNW 9 13 5 7 - - 5.8
23/10:30pm 0.5 -2.7 -0.5 93 0.4 W 6 7 3 4 - - 5.6
23/10:00pm 0.3 -1.8 -0.7 93 0.4 CALM 0 0 0 0 - - 5.6
23/09:30pm 0.3 -1.8 -0.8 92 0.4 CALM 0 0 0 0 - - 5.2
23/09:00pm 0.3 -1.8 -0.8 92 0.4 CALM 0 0 0 0 - - 5.0
23/08:30pm 0.5 -1.6 -0.8 91 0.5 CALM 0 0 0 0 - - 5.0
23/08:00pm 0.9 -1.5 -0.4 91 0.5 WSW 2 7 1 4 - - 5.0
23/07:30pm 0.9 -1.5 -0.5 90 0.5 W 2 6 1 3 - - 4.8
23/07:00pm 1.2 -3.0 -0.6 88 0.7 W 11 24 6 13 - - 4.4
23/06:30pm 1.5 -1.3 -0.4 87 0.7 WSW 4 7 2 4 - - 4.4
23/06:00pm 2.2 -1.2 -0.9 80 1.2 N 7 17 4 9 - - 4.4
23/05:30pm 2.5 -0.7 -0.6 80 1.2 W 6 11 3 6 - - 4.4
23/05:00pm 2.5 -1.5 0.2 85 0.9 NW 11 24 6 13 - - 4.4
23/04:30pm 1.8 -2.3 -0.1 87 0.7 WNW 11 22 6 12 - - 4.4
23/04:00pm 3.0 -1.8 0.1 81 1.1 NW 15 32 8 17 - - 3.6
23/03:30pm 3.2 -2.0 0.3 81 1.1 NW 17 32 9 17 - - 3.4
23/03:00pm 4.4 -0.5 -0.4 71 1.9 NW 15 43 8 23 - - 3.2
23/02:30pm 4.3 -1.2 0.5 76 1.5 WNW 19 32 10 17 - - 3.2
23/02:00pm 4.0 -0.7 0.9 80 1.2 WNW 15 26 8 14 - - 3.2
23/01:30pm 3.0 -1.7 0.7 85 0.9 NNW 15 35 8 19 - - 2.8
23/01:00pm 4.3 0.0 1.0 79 1.3 NW 13 26 7 14 - - 2.0
23/12:30pm 4.3 0.1 1.5 82 1.1 NW 13 32 7 17 - - 1.8
23/12:00pm 4.5 0.3 1.7 82 1.2 WNW 13 24 7 13 - - 1.8
23/11:30am 3.6 0.2 1.8 88 0.7 WNW 9 17 5 9 - - 1.8
23/11:00am 3.0 -0.5 1.2 88 0.7 WNW 9 22 5 12 - - 1.2
23/10:30am 2.8 -0.7 1.5 91 0.5 NNW 9 15 5 8 - - 0.8
23/10:00am 3.1 -0.3 1.9 92 0.5 NW 9 13 5 7 - - 0.8
23/09:30am 2.8 0.7 1.9 94 0.4 NNE 2 11 1 6 - - 0.0
23/09:00am 2.1 -0.8 1.2 94 0.4 NE 6 13 3 7 - - 8.4
23/08:30am 1.1 -1.6 0.2 94 0.3 SSE 4 9 2 5 - - 8.4
23/08:00am 0.9 -2.2 -0.1 93 0.4 WSW 6 7 3 4 - - 8.4
23/07:30am 0.9 -2.2 -0.1 93 0.4 SSW 6 11 3 6 - - 8.4
23/07:00am 1.1 -1.2 0.1 93 0.4 SE 2 7 1 4 - - 8.4
23/06:30am 1.7 -0.2 0.5 92 0.5 CALM 0 0 0 0 - - 8.4
23/06:00am 2.1 -0.9 0.9 92 0.5 SW 6 7 3 4 - - 8.4
23/05:30am 2.0 -0.3 0.7 91 0.5 E 2 9 1 5 - - 8.4
23/05:00am 2.0 -1.2 0.5 90 0.6 SW 7 11 4 6 - - 8.2
23/04:30am 2.6 -3.1 0.7 87 0.7 WSW 20 32 11 17 - - 7.2
23/04:00am 3.7 0.7 2.1 89 0.7 WSW 7 17 4 9 - - 6.4
23/03:30am 4.3 1.5 3.0 91 0.6 W 7 17 4 9 - - 6.4
23/03:00am 4.0 1.7 2.8 92 0.5 SSW 4 7 2 4 - - 6.2
23/02:30am 3.9 2.0 2.7 92 0.5 NNE 2 6 1 3 - - 6.2
23/02:00am 3.8 1.1 2.6 92 0.5 SSW 6 9 3 5 - - 6.2
23/01:30am 3.7 1.0 2.4 91 0.5 SW 6 7 3 4 - - 6.2
23/01:00am 3.8 1.0 2.2 89 0.7 SW 6 9 3 5 - - 6.2
23/12:30am 3.9 1.1 2.1 88 0.7 W 6 11 3 6 - - 6.2
23/12:00am 4.0 1.2 2.0 87 0.8 N 6 11 3 6 - - 6.2
 
Date/Time
EST
Temp
°C
App
Temp
°C
Dew
Point
°C
Rel
Hum
%
Delta-T
°C
Wind Press
QNH
hPa
Press
MSL
hPa
Rain since
9am
mm
Dir  Spd
km/h
Gust
km/h
Spd
kts
Gust
kts
22/11:30pm 4.3 0.6 2.3 87 0.8 NW 11 20 6 11 - - 5.8
22/11:00pm 4.7 1.4 2.6 86 0.9 W 9 17 5 9 - - 5.0
22/10:30pm 4.8 -0.1 2.3 84 1.1 NW 17 28 9 15 - - 4.2
22/10:00pm 4.6 -0.8 2.3 85 1.0 WSW 20 39 11 21 - - 3.0
22/09:30pm 7.6 3.9 4.2 79 1.5 NNW 13 24 7 13 - - 0.2
22/09:00pm 8.5 3.5 3.4 70 2.3 NNW 19 35 10 19 - - 0.0
22/08:30pm 8.8 4.1 3.0 67 2.6 NNW 17 30 9 16 - - 0.0
22/08:00pm 8.8 4.4 2.8 66 2.7 NNW 15 24 8 13 - - 0.0
22/07:30pm 8.6 3.8 2.8 67 2.6 N 17 32 9 17 - - 0.0
22/07:00pm 8.8 4.4 2.6 65 2.7 NNW 15 35 8 19 - - 0.0
22/06:30pm 8.7 4.6 2.1 63 2.9 N 13 26 7 14 - - 0.0
22/06:00pm 9.1 4.6 2.2 62 3.0 NNW 15 32 8 17 - - 0.0
22/05:30pm 9.3 4.8 1.9 60 3.2 N 15 28 8 15 - - 0.0
22/05:00pm 9.4 4.5 1.8 59 3.3 N 17 37 9 20 - - 0.0
22/04:30pm 9.6 4.7 2.0 59 3.3 NNW 17 32 9 17 - - 0.0
22/04:00pm 9.2 4.3 2.1 61 3.1 N 17 30 9 16 - - 0.0
22/03:30pm 9.3 3.4 1.7 59 3.3 N 22 46 12 25 - - 0.0
22/03:00pm 9.9 4.6 1.8 57 3.5 N 19 41 10 22 - - 0.0
22/02:30pm 9.7 4.7 1.6 57 3.5 N 17 30 9 16 - - 0.0
22/02:00pm 10.4 5.5 1.8 55 3.8 NNW 17 30 9 16 - - 0.0
22/01:30pm 10.8 5.9 2.1 55 3.9 N 17 32 9 17 - - 0.0
22/01:00pm 10.7 5.2 1.8 54 3.9 N 20 39 11 21 - - 0.0
22/12:30pm 11.1 6.6 2.4 55 3.9 NW 15 26 8 14 - - 0.0
22/12:00pm 10.8 6.8 2.9 58 3.6 WNW 13 24 7 13 - - 0.0
22/11:30am 11.1 6.8 3.4 59 3.5 NW 15 30 8 16 - - 0.0
22/11:00am 10.6 6.7 3.4 61 3.3 NW 13 41 7 22 - - 0.0
22/10:30am 10.1 6.3 4.0 66 2.8 NW 13 26 7 14 - - 0.0
22/10:00am 9.3 6.3 4.3 71 2.3 NW 9 20 5 11 - - 0.0
22/09:30am 9.1 5.0 4.3 72 2.2 N 15 28 8 15 - - 0.0
22/09:00am 8.8 5.0 4.0 72 2.2 WNW 13 28 7 15 - - 2.8
22/08:30am 8.7 4.8 3.5 70 2.3 WNW 13 30 7 16 - - 2.8
22/08:00am 8.3 4.9 4.1 75 1.9 W 11 24 6 13 - - 2.8
22/07:30am 6.6 4.0 4.1 84 1.1 SW 7 11 4 6 - - 2.8
22/07:00am 6.8 4.2 4.1 83 1.2 WSW 7 11 4 6 - - 2.8
22/06:30am 6.7 4.0 3.7 81 1.3 NNE 7 15 4 8 - - 2.8
22/06:00am 6.4 4.1 3.0 79 1.5 SW 4 7 2 4 - - 2.8
22/05:30am 6.8 4.1 2.9 76 1.7 SW 6 11 3 6 - - 2.8
22/05:00am 6.6 3.9 2.7 76 1.7 ENE 6 11 3 6 - - 2.8
22/04:30am 6.6 4.3 2.7 76 1.7 S 4 7 2 4 - - 2.8
22/04:00am 6.7 5.2 2.8 76 1.7 CALM 0 6 0 3 - - 2.8
22/03:30am 6.8 3.9 2.7 75 1.8 W 7 15 4 8 - - 2.8
22/03:00am 6.6 3.4 2.9 77 1.6 WNW 9 17 5 9 - - 2.8
22/02:30am 6.4 2.4 2.7 77 1.6 WNW 13 26 7 14 - - 2.8
22/02:00am 6.4 1.6 2.7 77 1.6 WNW 17 35 9 19 - - 2.8
22/01:30am 5.5 2.2 2.5 81 1.3 W 9 19 5 10 - - 2.8
22/01:00am 5.7 2.0 2.5 80 1.4 NW 11 28 6 15 - - 2.8
22/12:30am 5.9 2.2 2.2 77 1.6 WNW 11 20 6 11 - - 2.8
22/12:00am 5.7 1.9 1.6 75 1.7 WNW 11 22 6 12 - - 2.8
 
Date/Time
EST
Temp
°C
App
Temp
°C
Dew
Point
°C
Rel
Hum
%
Delta-T
°C
Wind Press
QNH
hPa
Press
MSL
hPa
Rain since
9am
mm
Dir  Spd
km/h
Gust
km/h
Spd
kts
Gust
kts
21/11:30pm 5.7 1.5 1.4 74 1.8 WNW 13 24 7 13 - - 2.8
21/11:00pm 5.7 1.0 1.2 73 1.9 NW 15 28 8 15 - - 2.8
21/10:30pm 5.9 1.3 1.8 75 1.7 WNW 15 39 8 21 - - 2.8
21/10:00pm 5.6 1.1 2.1 78 1.5 WNW 15 37 8 20 - - 2.8
21/09:30pm 5.7 2.0 2.2 78 1.5 WNW 11 24 6 13 - - 2.8
21/09:00pm 5.5 1.4 2.2 79 1.4 NW 13 30 7 16 - - 2.8
21/08:30pm 5.0 0.5 2.0 81 1.3 WNW 15 26 8 14 - - 2.8
21/08:00pm 4.8 0.3 2.2 83 1.1 WNW 15 28 8 15 - - 2.8
21/07:30pm 4.7 -0.2 2.2 84 1.0 WNW 17 35 9 19 - - 2.8
21/07:00pm 4.4 0.7 2.3 86 0.9 WNW 11 22 6 12 - - 2.8
21/06:30pm 4.0 1.0 1.7 85 0.9 WNW 7 13 4 7 - - 2.6
21/06:00pm 4.4 0.9 1.4 81 1.2 WNW 9 20 5 11 - - 2.0
21/05:30pm 4.7 0.0 1.2 78 1.4 NW 15 26 8 14 - - 2.0
21/05:00pm 4.4 -0.3 1.1 79 1.3 WNW 15 30 8 16 - - 2.0
21/04:30pm 4.2 -0.8 1.1 80 1.3 WNW 17 32 9 17 - - 2.0
21/04:00pm 4.0 -1.0 1.2 82 1.1 WNW 17 32 9 17 - - 1.6
21/03:30pm 4.9 -0.6 0.9 75 1.6 NW 19 41 10 22 - - 1.2
21/03:00pm 5.4 -0.2 1.3 75 1.7 NW 20 41 11 22 - - 1.2
21/02:30pm 5.4 0.9 1.9 78 1.5 WNW 15 28 8 15 - - 1.2
21/02:00pm 5.9 0.4 1.8 75 1.7 NW 20 41 11 22 - - 1.0
21/01:30pm 6.0 1.5 2.3 77 1.6 NW 15 26 8 14 - - 1.0
21/01:00pm 6.2 1.3 1.7 73 1.9 NW 17 39 9 21 - - 0.8
21/12:30pm 6.1 0.2 1.6 73 1.9 NW 22 50 12 27 - - 0.8
21/12:00pm 6.2 2.3 3.2 81 1.3 NW 13 28 7 15 - - 0.8
21/11:30am 6.5 1.8 3.1 79 1.5 WNW 17 32 9 17 - - 0.6
21/11:00am 7.1 2.9 3.7 79 1.5 WNW 15 35 8 19 - - 0.6
21/10:30am 7.7 3.8 3.6 75 1.8 NNW 13 20 7 11 - - 0.4
21/10:00am 7.1 2.0 3.3 77 1.7 NW 19 35 10 19 - - 0.4
21/09:30am 6.9 3.0 3.5 79 1.5 NW 13 26 7 14 - - 0.4
21/09:00am 6.6 2.4 3.8 82 1.2 NNW 15 30 8 16 - - 2.0
21/08:30am 6.2 3.7 3.9 85 1.0 N 6 15 3 8 - - 1.4
21/08:00am 6.5 2.7 3.8 83 1.2 N 13 30 7 16 - - 1.4
21/07:30am 6.9 3.8 3.7 80 1.4 N 9 28 5 15 - - 0.2
21/07:00am 7.3 3.4 3.2 75 1.8 N 13 20 7 11 - - 0.0
21/06:30am 7.3 4.1 3.0 74 1.9 NNW 9 13 5 7 - - 0.0
21/06:00am 8.1 3.3 2.8 69 2.3 NNW 17 37 9 20 - - 0.0
21/05:30am 8.2 3.3 2.2 66 2.6 N 17 30 9 16 - - 0.0
21/05:00am 8.0 3.5 2.0 66 2.6 NNW 15 26 8 14 - - 0.0
21/04:30am 8.3 3.0 1.7 63 2.8 NNW 19 41 10 22 - - 0.0
21/04:00am 8.1 3.8 1.3 62 2.9 NNW 13 33 7 18 - - 0.0
21/03:30am 7.8 3.2 1.4 64 2.7 N 15 30 8 16 - - 0.0
21/03:00am 7.6 3.8 1.5 65 2.6 NNE 11 28 6 15 - - 0.0
21/02:30am 7.5 4.1 1.6 66 2.5 NNE 9 17 5 9 - - 0.0
21/02:00am 7.9 3.4 2.0 66 2.5 NNE 15 39 8 21 - - 0.0
21/01:30am 7.3 4.6 2.4 71 2.1 NNE 6 11 3 6 - - 0.0
21/01:00am 7.7 4.1 2.8 71 2.1 NE 11 24 6 13 - - 0.0
21/12:30am 7.7 4.4 2.6 70 2.2 N 9 15 5 8 - - 0.0
21/12:00am 7.3 4.0 2.4 71 2.1 NE 9 17 5 9 - - 0.0
 
Date/Time
EST
Temp
°C
App
Temp
°C
Dew
Point
°C
Rel
Hum
%
Delta-T
°C
Wind Press
QNH
hPa
Press
MSL
hPa
Rain since
9am
mm
Dir  Spd
km/h
Gust
km/h
Spd
kts
Gust
kts
20/11:30pm 5.8 2.9 2.8 81 1.3 NNE 7 17 4 9 - - 0.0

Other formats

Comma delimited format used in spreadsheet applications
http://www.bom.gov.au/fwo/IDT60801/IDT60801.94959.axf

JavaScript Object Notation format (JSON) in row-major order
http://www.bom.gov.au/fwo/IDT60801/IDT60801.94959.json

Data quality

Most of these data are generated automatically and are frequently updated. Quality checks on data are not normally performed. It is possible for incorrect values to appear. Refer to information at About Latest Weather Observations and please check the disclaimer before using these data.